createdAt,value
2023-04-30T00:00:10.932Z,9.98
2023-04-30T00:04:13.194Z,5.95
2023-04-30T00:08:15.273Z,8.87
2023-04-30T00:12:17.458Z,9.05
2023-04-30T00:16:19.689Z,10.80
2023-04-30T00:20:21.744Z,9.67
2023-04-30T00:24:23.820Z,9.32
2023-04-30T00:28:25.929Z,7.97
2023-04-30T00:32:27.989Z,8.98
2023-04-30T00:36:31.134Z,7.38
2023-04-30T00:40:35.291Z,8.43
2023-04-30T00:44:37.121Z,8.70
2023-04-30T00:48:39.320Z,10.60
2023-04-30T00:52:42.023Z,8.10
2023-04-30T00:56:43.973Z,9.18
2023-04-30T01:00:47.363Z,8.85
2023-04-30T01:04:50.515Z,10.53
2023-04-30T01:08:52.930Z,8.17
2023-04-30T01:13:23.620Z,7.97
2023-04-30T01:17:36.284Z,9.75
2023-04-30T01:21:41.649Z,9.17
2023-04-30T01:26:36.240Z,8.00
2023-04-30T01:30:40.792Z,8.60
2023-04-30T01:34:43.227Z,9.47
2023-04-30T01:39:22.767Z,9.43
2023-04-30T01:43:45.685Z,10.03
2023-04-30T01:47:54.214Z,10.40
2023-04-30T01:52:17.850Z,10.30
2023-04-30T01:56:27.889Z,11.73
2023-04-30T02:00:33.110Z,11.37
2023-04-30T02:04:35.148Z,15.37
2023-04-30T02:08:38.983Z,12.00
2023-04-30T02:12:41.415Z,13.33
2023-04-30T02:16:43.349Z,12.17
2023-04-30T02:20:45.405Z,10.30
2023-04-30T02:24:47.375Z,10.80
2023-04-30T02:28:49.712Z,11.60
2023-04-30T02:32:51.814Z,12.23
2023-04-30T02:36:53.871Z,13.20
2023-04-30T02:40:56.360Z,11.52
2023-04-30T02:44:58.145Z,12.80
2023-04-30T02:49:00.021Z,11.40
2023-04-30T02:53:02.119Z,11.93
2023-04-30T02:57:04.272Z,12.50
2023-04-30T03:01:06.231Z,11.77
2023-04-30T03:05:08.520Z,13.17
2023-04-30T03:09:10.611Z,14.07
2023-04-30T03:13:12.390Z,12.67
2023-04-30T03:17:14.337Z,14.23
2023-04-30T03:21:16.498Z,13.27
2023-04-30T03:25:18.555Z,14.70
2023-04-30T03:29:20.569Z,13.03
2023-04-30T03:33:23.053Z,14.57
2023-04-30T03:37:25.461Z,13.97
2023-04-30T03:41:27.449Z,13.87
2023-04-30T03:45:29.427Z,12.53
2023-04-30T03:49:31.380Z,13.57
2023-04-30T03:53:34.314Z,14.63
2023-04-30T03:57:36.523Z,16.30
2023-04-30T04:01:38.901Z,14.07
2023-04-30T04:05:40.999Z,15.93
2023-04-30T04:09:43.139Z,13.93
2023-04-30T04:13:45.898Z,13.67
2023-04-30T04:17:48.703Z,14.67
2023-04-30T04:21:50.719Z,13.47
2023-04-30T04:25:53.192Z,15.47
2023-04-30T04:29:56.115Z,12.40
2023-04-30T04:34:03.425Z,15.13
2023-04-30T04:38:05.847Z,17.10
2023-04-30T04:42:08.417Z,12.50
2023-04-30T04:46:12.964Z,11.87
2023-04-30T04:50:16.463Z,13.33
2023-04-30T04:54:18.709Z,15.53
2023-04-30T04:58:20.800Z,11.10
2023-04-30T05:02:23.758Z,14.70
2023-04-30T05:06:27.112Z,13.37
2023-04-30T05:10:28.996Z,16.17
2023-04-30T05:14:30.790Z,12.93
2023-04-30T05:18:32.611Z,15.60
2023-04-30T05:22:34.538Z,13.60
2023-04-30T05:26:36.458Z,15.30
2023-04-30T05:30:38.464Z,18.53
2023-04-30T05:34:40.626Z,13.50
2023-04-30T05:38:42.648Z,13.80
2023-04-30T05:42:44.651Z,14.53
2023-04-30T05:46:46.748Z,15.07
2023-04-30T05:50:48.702Z,15.13
2023-04-30T05:54:51.966Z,13.03
2023-04-30T05:58:56.406Z,14.13
2023-04-30T06:02:58.261Z,13.60
2023-04-30T06:07:00.754Z,13.37
2023-04-30T06:11:05.103Z,12.43
2023-04-30T06:15:07.437Z,15.70
2023-04-30T06:19:09.266Z,12.97
2023-04-30T06:23:11.144Z,12.17
2023-04-30T06:27:13.008Z,13.40
2023-04-30T06:31:15.500Z,11.45
2023-04-30T06:35:17.568Z,12.85
2023-04-30T06:39:19.671Z,11.27
2023-04-30T06:43:21.996Z,11.75
2023-04-30T06:47:24.090Z,17.10
2023-04-30T06:51:26.483Z,11.38
2023-04-30T06:55:28.295Z,14.18
2023-04-30T06:59:30.177Z,11.00
2023-04-30T07:03:33.761Z,15.45
2023-04-30T07:07:36.859Z,10.95
2023-04-30T07:11:39.987Z,11.60
2023-04-30T07:15:42.244Z,12.00
2023-04-30T07:19:44.219Z,12.68
2023-04-30T07:23:46.092Z,13.07
2023-04-30T07:27:48.316Z,12.70
2023-04-30T07:31:50.927Z,10.60
2023-04-30T07:35:54.467Z,10.27
2023-04-30T07:39:57.175Z,11.32
2023-04-30T07:43:59.909Z,10.48
2023-04-30T07:48:02.086Z,9.30
2023-04-30T07:52:04.035Z,11.38
2023-04-30T07:56:05.941Z,13.80
2023-04-30T08:00:08.482Z,12.65
2023-04-30T08:04:15.527Z,12.05
2023-04-30T08:08:17.467Z,10.90
2023-04-30T08:12:19.424Z,9.65
2023-04-30T08:16:21.667Z,10.13
2023-04-30T08:20:23.627Z,7.60
2023-04-30T08:24:25.809Z,8.23
2023-04-30T08:28:27.990Z,8.88
2023-04-30T08:32:30.686Z,7.50
2023-04-30T08:36:32.675Z,8.35
2023-04-30T08:40:50.117Z,8.93
2023-04-30T08:44:53.295Z,7.75
2023-04-30T08:48:55.672Z,7.00
2023-04-30T08:53:01.897Z,7.80
2023-04-30T08:57:04.769Z,8.05
2023-04-30T09:01:09.001Z,7.68
2023-04-30T09:05:13.071Z,6.20
2023-04-30T09:09:16.195Z,7.07
2023-04-30T09:13:18.237Z,6.32
2023-04-30T09:17:23.439Z,5.60
2023-04-30T09:21:38.372Z,4.78
2023-04-30T09:25:43.326Z,5.05
2023-04-30T09:29:46.240Z,6.65
2023-04-30T09:33:48.542Z,6.70
2023-04-30T09:37:53.455Z,6.22
2023-04-30T09:42:08.298Z,7.07
2023-04-30T09:46:10.749Z,5.35
2023-04-30T09:50:13.983Z,6.03
2023-04-30T09:54:18.661Z,5.53
2023-04-30T09:58:20.828Z,4.60
2023-04-30T10:02:24.059Z,4.28
2023-04-30T10:06:29.801Z,5.32
2023-04-30T10:10:32.528Z,5.15
2023-04-30T10:14:35.245Z,4.95
2023-04-30T10:18:39.997Z,7.05
2023-04-30T10:22:43.682Z,7.40
2023-04-30T10:26:47.318Z,4.07
2023-04-30T10:30:51.517Z,4.05
2023-04-30T10:35:06.335Z,5.47
2023-04-30T10:39:08.678Z,5.55
2023-04-30T10:43:11.511Z,4.72
2023-04-30T10:47:13.840Z,4.45
2023-04-30T10:51:16.110Z,5.15
2023-04-30T10:55:18.583Z,4.75
2023-04-30T10:59:20.782Z,4.40
2023-04-30T11:03:22.953Z,4.05
2023-04-30T11:07:28.999Z,4.38
2023-04-30T11:11:36.403Z,3.90
2023-04-30T11:15:44.809Z,4.30
2023-04-30T11:19:48.690Z,3.60
2023-04-30T11:23:50.957Z,7.95
2023-04-30T11:27:56.222Z,6.10
2023-04-30T11:32:01.394Z,5.25
2023-04-30T11:36:03.777Z,4.65
2023-04-30T11:40:07.882Z,4.22
2023-04-30T11:44:27.055Z,5.47
2023-04-30T11:48:44.307Z,5.57
2023-04-30T11:52:51.605Z,4.38
2023-04-30T11:56:53.630Z,4.50
2023-04-30T12:01:02.103Z,4.70
2023-04-30T12:05:04.722Z,4.55
2023-04-30T12:09:09.116Z,3.53
2023-04-30T12:13:14.129Z,4.13
2023-04-30T12:17:32.285Z,4.20
2023-04-30T12:21:35.288Z,6.43
2023-04-30T12:25:45.115Z,5.05
2023-04-30T12:29:48.777Z,4.13
2023-04-30T12:33:55.574Z,4.45
2023-04-30T12:38:05.704Z,3.00
2023-04-30T12:42:08.169Z,4.43
2023-04-30T12:46:10.315Z,5.03
2023-04-30T12:50:12.636Z,4.95
2023-04-30T12:54:14.814Z,4.80
2023-04-30T12:58:16.728Z,4.05
2023-04-30T13:02:19.052Z,2.80
2023-04-30T13:06:24.405Z,3.10
2023-04-30T13:10:26.376Z,3.50
2023-04-30T13:14:28.469Z,3.67
2023-04-30T13:18:30.231Z,3.33
2023-04-30T13:22:32.232Z,7.57
2023-04-30T13:26:34.744Z,4.85
2023-04-30T13:30:36.904Z,4.40
2023-04-30T13:34:38.985Z,3.30
2023-04-30T13:38:41.764Z,4.15
2023-04-30T13:42:46.429Z,3.67
2023-04-30T13:46:48.400Z,4.10
2023-04-30T13:50:52.123Z,5.20
2023-04-30T13:54:54.215Z,3.55
2023-04-30T13:58:56.126Z,7.13
2023-04-30T14:02:58.029Z,4.07
2023-04-30T14:07:01.271Z,3.55
2023-04-30T14:11:03.173Z,2.83
2023-04-30T14:15:05.971Z,3.15
2023-04-30T14:19:07.818Z,2.40
2023-04-30T14:23:09.966Z,3.50
2023-04-30T14:27:12.161Z,3.60
2023-04-30T14:31:14.334Z,2.40
2023-04-30T14:35:16.514Z,2.55
2023-04-30T14:39:18.646Z,2.72
2023-04-30T14:43:20.666Z,3.13
2023-04-30T14:47:22.673Z,4.03
2023-04-30T14:51:24.571Z,3.10
2023-04-30T14:55:26.623Z,2.83
2023-04-30T14:59:28.681Z,2.42
2023-04-30T15:04:22.594Z,3.40
2023-04-30T15:08:24.441Z,3.17
2023-04-30T15:12:26.748Z,2.55
2023-04-30T15:16:29.685Z,2.53
2023-04-30T15:20:32.159Z,2.03
2023-04-30T15:24:34.557Z,2.42
2023-04-30T15:28:37.141Z,4.05
2023-04-30T15:32:39.528Z,3.45
2023-04-30T15:36:41.596Z,2.88
2023-04-30T15:40:43.814Z,2.67
2023-04-30T15:44:45.854Z,2.40
2023-04-30T15:48:47.672Z,2.60
2023-04-30T15:52:49.724Z,2.83
2023-04-30T15:56:51.682Z,3.00
2023-04-30T16:00:53.942Z,3.63
2023-04-30T16:04:55.897Z,2.72
2023-04-30T16:09:32.164Z,2.78
2023-04-30T16:13:34.690Z,2.72
2023-04-30T16:17:39.895Z,3.08
2023-04-30T16:21:41.877Z,4.38
2023-04-30T16:25:43.862Z,2.55
2023-04-30T16:29:46.009Z,2.17
2023-04-30T16:33:48.244Z,3.67
2023-04-30T16:37:50.217Z,2.83
2023-04-30T16:41:52.032Z,2.65
2023-04-30T16:45:53.907Z,2.72
2023-04-30T16:49:56.992Z,5.45
2023-04-30T16:53:59.058Z,3.42
2023-04-30T16:58:01.215Z,3.15
2023-04-30T17:02:04.008Z,3.17
2023-04-30T17:06:06.888Z,2.92
2023-04-30T17:10:09.590Z,5.00
2023-04-30T17:14:11.844Z,3.40
2023-04-30T17:18:15.186Z,2.85
2023-04-30T17:22:20.034Z,4.10
2023-04-30T17:26:23.685Z,2.70
2023-04-30T17:30:26.927Z,3.00
2023-04-30T17:34:28.989Z,2.55
2023-04-30T17:38:30.857Z,3.65
2023-04-30T17:42:34.080Z,6.55
2023-04-30T17:46:36.001Z,3.88
2023-04-30T17:50:38.036Z,4.35
2023-04-30T17:54:40.096Z,3.08
2023-04-30T17:58:42.078Z,3.53
2023-04-30T18:02:44.398Z,3.10
2023-04-30T18:06:48.382Z,3.38
2023-04-30T18:10:51.553Z,3.63
2023-04-30T18:14:53.500Z,3.28
2023-04-30T18:18:55.489Z,4.72
2023-04-30T18:22:57.562Z,2.92
2023-04-30T18:26:59.593Z,7.85
2023-04-30T18:31:02.269Z,7.80
2023-04-30T18:35:04.791Z,6.88
2023-04-30T18:39:07.098Z,6.50
2023-04-30T18:43:09.390Z,4.90
2023-04-30T18:47:11.763Z,4.20
2023-04-30T18:51:13.601Z,5.00
2023-04-30T18:55:15.610Z,7.65
2023-04-30T18:59:19.280Z,4.07
2023-04-30T19:03:21.321Z,5.13
2023-04-30T19:07:23.265Z,5.55
2023-04-30T19:11:25.466Z,6.85
2023-04-30T19:15:29.602Z,6.28
2023-04-30T19:19:31.427Z,6.20
2023-04-30T19:23:33.464Z,8.68
2023-04-30T19:27:35.671Z,5.30
2023-04-30T19:31:37.808Z,5.63
2023-04-30T19:35:40.181Z,8.15
2023-04-30T19:39:41.974Z,9.10
2023-04-30T19:43:43.823Z,6.85
2023-04-30T19:47:45.836Z,5.50
2023-04-30T19:51:47.780Z,10.07
2023-04-30T19:55:51.895Z,7.85
2023-04-30T19:59:54.086Z,14.27
2023-04-30T20:03:56.461Z,10.40
2023-04-30T20:07:59.502Z,8.82
2023-04-30T20:12:02.787Z,7.05
2023-04-30T20:16:04.817Z,6.43
2023-04-30T20:20:07.203Z,5.78
2023-04-30T20:24:11.036Z,6.75
2023-04-30T20:28:14.568Z,11.13
2023-04-30T20:32:16.940Z,13.25
2023-04-30T20:36:20.395Z,19.88
2023-04-30T20:40:22.631Z,18.63
2023-04-30T20:44:26.742Z,21.23
2023-04-30T20:48:28.681Z,10.38
2023-04-30T20:52:30.517Z,8.80
2023-04-30T20:56:32.771Z,10.93
2023-04-30T21:00:34.892Z,12.35
2023-04-30T21:04:37.170Z,8.30
2023-04-30T21:08:39.236Z,8.63
2023-04-30T21:12:41.407Z,6.35
2023-04-30T21:16:43.858Z,7.20
2023-04-30T21:20:46.081Z,6.75
2023-04-30T21:24:48.021Z,5.20
2023-04-30T21:28:52.418Z,5.73
2023-04-30T21:32:58.437Z,5.90
2023-04-30T21:37:00.837Z,7.37
2023-04-30T21:41:03.634Z,6.53
2023-04-30T21:45:06.189Z,6.97
2023-04-30T21:49:08.083Z,6.13
2023-04-30T21:53:10.371Z,7.20
2023-04-30T21:57:12.141Z,8.63
2023-04-30T22:01:13.917Z,7.87
2023-04-30T22:05:16.665Z,6.20
2023-04-30T22:09:18.739Z,7.23
2023-04-30T22:13:20.832Z,9.60
2023-04-30T22:17:23.255Z,4.63
2023-04-30T22:21:25.812Z,9.30
2023-04-30T22:25:27.747Z,5.17
2023-04-30T22:29:29.957Z,7.47
2023-04-30T22:33:36.171Z,7.17
2023-04-30T22:37:40.801Z,5.20
2023-04-30T22:41:46.628Z,5.37
2023-04-30T22:45:48.783Z,8.60
2023-04-30T22:49:50.919Z,5.23
2023-04-30T22:53:55.371Z,7.47
2023-04-30T22:57:59.732Z,5.50
2023-04-30T23:02:01.554Z,5.33
2023-04-30T23:06:03.498Z,5.80
2023-04-30T23:10:06.215Z,6.27
2023-04-30T23:14:09.745Z,7.23
2023-04-30T23:18:12.005Z,6.60
2023-04-30T23:22:13.876Z,6.10
2023-04-30T23:26:16.618Z,8.17
2023-04-30T23:30:18.620Z,7.17
2023-04-30T23:34:21.122Z,8.77
2023-04-30T23:38:23.209Z,6.83
2023-04-30T23:42:25.119Z,6.30
2023-04-30T23:46:27.137Z,8.53
2023-04-30T23:50:29.019Z,7.87
2023-04-30T23:54:30.918Z,8.77
2023-04-30T23:58:32.788Z,6.77
